sensor_id;sensor_type;location;lat;lon;timestamp;pressure;altitude;pressure_sealevel;temperature;humidity
15884;BME280;8040;50.254;10.960;2023-08-31T00:00:43;97466.31;;;15.48;94.55
15884;BME280;8040;50.254;10.960;2023-08-31T00:03:10;97482.72;;;15.48;94.18
15884;BME280;8040;50.254;10.960;2023-08-31T00:05:42;97499.47;;;15.47;95.25
15884;BME280;8040;50.254;10.960;2023-08-31T00:08:08;97474.47;;;15.33;96.11
15884;BME280;8040;50.254;10.960;2023-08-31T00:10:35;97488.88;;;15.45;96.35
15884;BME280;8040;50.254;10.960;2023-08-31T00:13:04;97470.78;;;15.41;96.37
15884;BME280;8040;50.254;10.960;2023-08-31T00:15:31;97450.25;;;15.19;95.94
15884;BME280;8040;50.254;10.960;2023-08-31T00:18:06;97482.97;;;15.43;95.89
15884;BME280;8040;50.254;10.960;2023-08-31T00:20:32;97479.56;;;15.34;96.55
15884;BME280;8040;50.254;10.960;2023-08-31T00:23:01;97483.34;;;15.30;96.50
15884;BME280;8040;50.254;10.960;2023-08-31T00:25:26;97462.88;;;15.24;96.44
15884;BME280;8040;50.254;10.960;2023-08-31T00:27:52;97453.47;;;15.09;96.11
15884;BME280;8040;50.254;10.960;2023-08-31T00:30:19;97489.03;;;15.25;95.78
15884;BME280;8040;50.254;10.960;2023-08-31T00:32:44;97480.75;;;15.21;95.62
15884;BME280;8040;50.254;10.960;2023-08-31T00:35:15;97497.22;;;15.37;95.29
15884;BME280;8040;50.254;10.960;2023-08-31T00:37:40;97504.03;;;15.43;95.04
15884;BME280;8040;50.254;10.960;2023-08-31T00:40:06;97491.75;;;15.37;93.93
15884;BME280;8040;50.254;10.960;2023-08-31T00:42:33;97472.44;;;15.18;93.16
15884;BME280;8040;50.254;10.960;2023-08-31T00:44:59;97462.47;;;15.10;93.09
15884;BME280;8040;50.254;10.960;2023-08-31T00:47:24;97489.75;;;15.22;93.35
15884;BME280;8040;50.254;10.960;2023-08-31T00:49:50;97431.59;;;14.82;93.24
15884;BME280;8040;50.254;10.960;2023-08-31T00:52:16;97518.41;;;15.40;93.01
15884;BME280;8040;50.254;10.960;2023-08-31T00:54:45;97479.06;;;15.17;93.90
15884;BME280;8040;50.254;10.960;2023-08-31T00:57:11;97468.13;;;15.17;93.38
15884;BME280;8040;50.254;10.960;2023-08-31T00:59:36;97518.59;;;15.47;92.80
15884;BME280;8040;50.254;10.960;2023-08-31T01:02:16;97500.16;;;15.32;92.34
15884;BME280;8040;50.254;10.960;2023-08-31T01:04:51;97536.00;;;15.54;92.29
15884;BME280;8040;50.254;10.960;2023-08-31T01:10:22;97538.50;;;15.47;91.51
15884;BME280;8040;50.254;10.960;2023-08-31T01:12:53;97536.03;;;15.42;91.76
15884;BME280;8040;50.254;10.960;2023-08-31T01:15:20;97476.03;;;15.06;91.31
15884;BME280;8040;50.254;10.960;2023-08-31T01:17:54;97496.13;;;15.14;90.97
15884;BME280;8040;50.254;10.960;2023-08-31T01:20:28;97516.94;;;15.30;90.22
15884;BME280;8040;50.254;10.960;2023-08-31T01:23:10;97524.31;;;15.30;90.42
15884;BME280;8040;50.254;10.960;2023-08-31T01:25:37;97512.38;;;15.22;90.16
15884;BME280;8040;50.254;10.960;2023-08-31T01:28:04;97532.66;;;15.33;89.60
15884;BME280;8040;50.254;10.960;2023-08-31T01:30:30;97535.94;;;15.27;89.44
15884;BME280;8040;50.254;10.960;2023-08-31T01:32:56;97504.22;;;15.10;89.87
15884;BME280;8040;50.254;10.960;2023-08-31T01:35:22;97518.44;;;15.16;90.21
15884;BME280;8040;50.254;10.960;2023-08-31T01:37:57;97493.69;;;14.97;89.64
15884;BME280;8040;50.254;10.960;2023-08-31T01:40:37;97510.28;;;15.04;88.51
15884;BME280;8040;50.254;10.960;2023-08-31T01:43:04;97520.28;;;15.12;89.01
15884;BME280;8040;50.254;10.960;2023-08-31T01:45:32;97512.59;;;15.02;89.32
15884;BME280;8040;50.254;10.960;2023-08-31T01:47:59;97545.56;;;15.09;89.70
15884;BME280;8040;50.254;10.960;2023-08-31T01:50:25;97530.28;;;15.08;90.00
15884;BME280;8040;50.254;10.960;2023-08-31T01:52:51;97536.56;;;15.08;89.47
15884;BME280;8040;50.254;10.960;2023-08-31T01:55:18;97519.19;;;14.89;90.03
15884;BME280;8040;50.254;10.960;2023-08-31T01:57:43;97529.22;;;14.97;89.60
15884;BME280;8040;50.254;10.960;2023-08-31T02:00:10;97495.56;;;14.69;89.53
15884;BME280;8040;50.254;10.960;2023-08-31T02:02:35;97540.56;;;14.99;89.43
15884;BME280;8040;50.254;10.960;2023-08-31T02:05:03;97455.50;;;14.33;88.80
15884;BME280;8040;50.254;10.960;2023-08-31T02:07:30;97481.97;;;14.45;89.20
15884;BME280;8040;50.254;10.960;2023-08-31T02:09:55;97550.97;;;14.81;90.40
15884;BME280;8040;50.254;10.960;2023-08-31T02:12:20;97560.16;;;14.89;90.59
15884;BME280;8040;50.254;10.960;2023-08-31T02:14:46;97538.31;;;14.77;90.77
15884;BME280;8040;50.254;10.960;2023-08-31T02:17:11;97532.19;;;14.68;90.99
15884;BME280;8040;50.254;10.960;2023-08-31T02:19:37;97529.59;;;14.71;89.72
15884;BME280;8040;50.254;10.960;2023-08-31T02:22:02;97554.81;;;14.80;90.30
15884;BME280;8040;50.254;10.960;2023-08-31T02:24:28;97515.72;;;14.52;90.12
15884;BME280;8040;50.254;10.960;2023-08-31T02:26:56;97566.66;;;14.84;90.13
15884;BME280;8040;50.254;10.960;2023-08-31T02:29:22;97512.88;;;14.49;90.21
15884;BME280;8040;50.254;10.960;2023-08-31T02:31:47;97570.53;;;14.83;90.47
15884;BME280;8040;50.254;10.960;2023-08-31T02:34:13;97571.66;;;14.82;90.41
15884;BME280;8040;50.254;10.960;2023-08-31T02:36:38;97518.56;;;14.44;90.57
15884;BME280;8040;50.254;10.960;2023-08-31T02:39:04;97547.22;;;14.62;91.18
15884;BME280;8040;50.254;10.960;2023-08-31T02:41:29;97580.88;;;14.90;91.55
15884;BME280;8040;50.254;10.960;2023-08-31T02:43:55;97540.38;;;14.68;91.02
15884;BME280;8040;50.254;10.960;2023-08-31T02:46:20;97549.03;;;14.70;89.98
15884;BME280;8040;50.254;10.960;2023-08-31T02:48:51;97569.81;;;14.86;90.77
15884;BME280;8040;50.254;10.960;2023-08-31T02:51:16;97568.72;;;14.87;90.92
15884;BME280;8040;50.254;10.960;2023-08-31T02:53:42;97553.13;;;14.76;90.61
15884;BME280;8040;50.254;10.960;2023-08-31T02:56:07;97553.91;;;14.76;89.39
15884;BME280;8040;50.254;10.960;2023-08-31T02:58:33;97541.31;;;14.72;90.35
15884;BME280;8040;50.254;10.960;2023-08-31T03:01:09;97539.47;;;14.64;90.25
15884;BME280;8040;50.254;10.960;2023-08-31T03:03:37;97540.72;;;14.66;90.46
15884;BME280;8040;50.254;10.960;2023-08-31T03:06:02;97539.47;;;14.64;89.87
15884;BME280;8040;50.254;10.960;2023-08-31T03:08:28;97554.38;;;14.66;89.91
15884;BME280;8040;50.254;10.960;2023-08-31T03:13:56;97577.13;;;14.82;90.23
15884;BME280;8040;50.254;10.960;2023-08-31T03:16:21;97533.56;;;14.50;90.23
15884;BME280;8040;50.254;10.960;2023-08-31T03:18:47;97562.00;;;14.61;90.17
15884;BME280;8040;50.254;10.960;2023-08-31T03:21:12;97517.44;;;14.33;90.57
15884;BME280;8040;50.254;10.960;2023-08-31T03:23:37;97509.94;;;14.30;90.57
15884;BME280;8040;50.254;10.960;2023-08-31T03:26:07;97568.84;;;14.55;90.35
15884;BME280;8040;50.254;10.960;2023-08-31T03:28:33;97562.00;;;14.49;90.52
15884;BME280;8040;50.254;10.960;2023-08-31T03:30:59;97552.47;;;14.43;91.09
15884;BME280;8040;50.254;10.960;2023-08-31T03:33:26;97556.66;;;14.40;90.66
15884;BME280;8040;50.254;10.960;2023-08-31T03:35:52;97568.72;;;14.51;91.24
15884;BME280;8040;50.254;10.960;2023-08-31T03:38:17;97525.28;;;14.22;91.22
15884;BME280;8040;50.254;10.960;2023-08-31T03:40:52;97587.59;;;14.56;91.98
15884;BME280;8040;50.254;10.960;2023-08-31T03:43:17;97555.72;;;14.36;92.34
15884;BME280;8040;50.254;10.960;2023-08-31T03:45:43;97564.50;;;14.42;92.73
15884;BME280;8040;50.254;10.960;2023-08-31T03:48:08;97573.34;;;14.39;92.23
15884;BME280;8040;50.254;10.960;2023-08-31T03:50:33;97590.44;;;14.48;91.98
15884;BME280;8040;50.254;10.960;2023-08-31T03:52:59;97599.88;;;14.50;92.34
15884;BME280;8040;50.254;10.960;2023-08-31T03:55:26;97592.03;;;14.49;92.07
15884;BME280;8040;50.254;10.960;2023-08-31T03:57:51;97566.41;;;14.29;92.69
15884;BME280;8040;50.254;10.960;2023-08-31T04:00:17;97610.91;;;14.54;92.22
15884;BME280;8040;50.254;10.960;2023-08-31T04:02:42;97565.03;;;14.23;92.48
15884;BME280;8040;50.254;10.960;2023-08-31T04:05:09;97617.75;;;14.60;92.38
15884;BME280;8040;50.254;10.960;2023-08-31T04:07:35;97560.41;;;14.24;92.35
15884;BME280;8040;50.254;10.960;2023-08-31T04:10:01;97589.97;;;14.46;92.62
15884;BME280;8040;50.254;10.960;2023-08-31T04:12:26;97611.25;;;14.52;92.22
15884;BME280;8040;50.254;10.960;2023-08-31T04:14:51;97609.88;;;14.46;92.62
15884;BME280;8040;50.254;10.960;2023-08-31T04:17:18;97608.94;;;14.42;92.17
15884;BME280;8040;50.254;10.960;2023-08-31T04:19:44;97644.56;;;14.58;92.32
15884;BME280;8040;50.254;10.960;2023-08-31T04:22:09;97600.31;;;14.40;92.51
15884;BME280;8040;50.254;10.960;2023-08-31T04:24:35;97622.50;;;14.51;92.37
15884;BME280;8040;50.254;10.960;2023-08-31T04:27:00;97629.09;;;14.50;92.63
15884;BME280;8040;50.254;10.960;2023-08-31T04:29:25;97607.91;;;14.47;92.49
15884;BME280;8040;50.254;10.960;2023-08-31T04:31:51;97604.97;;;14.40;91.84
15884;BME280;8040;50.254;10.960;2023-08-31T04:34:16;97584.25;;;14.27;92.30
15884;BME280;8040;50.254;10.960;2023-08-31T04:36:41;97599.38;;;14.36;92.20
15884;BME280;8040;50.254;10.960;2023-08-31T04:39:13;97641.28;;;14.64;92.06
15884;BME280;8040;50.254;10.960;2023-08-31T04:41:39;97581.31;;;14.32;92.44
15884;BME280;8040;50.254;10.960;2023-08-31T04:44:04;97638.22;;;14.66;92.76
15884;BME280;8040;50.254;10.960;2023-08-31T04:46:30;97639.22;;;14.61;92.72
15884;BME280;8040;50.254;10.960;2023-08-31T04:48:55;97630.13;;;14.57;92.35
15884;BME280;8040;50.254;10.960;2023-08-31T04:51:31;97632.75;;;14.54;91.63
15884;BME280;8040;50.254;10.960;2023-08-31T04:54:00;97628.88;;;14.55;91.31
15884;BME280;8040;50.254;10.960;2023-08-31T04:56:31;97638.75;;;14.59;91.50
15884;BME280;8040;50.254;10.960;2023-08-31T04:59:00;97627.16;;;14.50;91.22
15884;BME280;8040;50.254;10.960;2023-08-31T05:01:27;97610.19;;;14.33;91.32
15884;BME280;8040;50.254;10.960;2023-08-31T05:03:52;97637.81;;;14.43;91.80
15884;BME280;8040;50.254;10.960;2023-08-31T05:06:18;97647.38;;;14.49;92.15
15884;BME280;8040;50.254;10.960;2023-08-31T05:08:43;97628.38;;;14.41;92.77
15884;BME280;8040;50.254;10.960;2023-08-31T05:11:09;97624.41;;;14.38;93.02
15884;BME280;8040;50.254;10.960;2023-08-31T05:13:34;97596.63;;;14.24;93.07
15884;BME280;8040;50.254;10.960;2023-08-31T05:16:00;97681.06;;;14.65;93.17
15884;BME280;8040;50.254;10.960;2023-08-31T05:18:28;97664.56;;;14.50;93.08
15884;BME280;8040;50.254;10.960;2023-08-31T05:20:53;97638.16;;;14.30;92.89
15884;BME280;8040;50.254;10.960;2023-08-31T05:23:20;97662.03;;;14.45;93.00
15884;BME280;8040;50.254;10.960;2023-08-31T05:25:46;97682.66;;;14.54;93.17
15884;BME280;8040;50.254;10.960;2023-08-31T05:28:11;97673.19;;;14.52;93.67
15884;BME280;8040;50.254;10.960;2023-08-31T05:30:45;97675.72;;;14.57;93.51
15884;BME280;8040;50.254;10.960;2023-08-31T05:33:11;97660.34;;;14.40;92.79
15884;BME280;8040;50.254;10.960;2023-08-31T05:35:36;97703.47;;;14.71;92.82
15884;BME280;8040;50.254;10.960;2023-08-31T05:38:02;97639.97;;;14.26;93.36
15884;BME280;8040;50.254;10.960;2023-08-31T05:40:28;97697.03;;;14.75;93.02
15884;BME280;8040;50.254;10.960;2023-08-31T05:42:53;97722.97;;;14.81;92.72
15884;BME280;8040;50.254;10.960;2023-08-31T05:45:19;97629.03;;;14.26;92.24
15884;BME280;8040;50.254;10.960;2023-08-31T05:47:44;97694.19;;;14.72;92.98
15884;BME280;8040;50.254;10.960;2023-08-31T05:50:10;97724.47;;;14.91;92.67
15884;BME280;8040;50.254;10.960;2023-08-31T05:52:35;97710.78;;;14.79;92.16
15884;BME280;8040;50.254;10.960;2023-08-31T05:55:01;97661.28;;;14.56;91.58
15884;BME280;8040;50.254;10.960;2023-08-31T05:57:26;97691.91;;;14.86;91.44
15884;BME280;8040;50.254;10.960;2023-08-31T05:59:53;97687.94;;;14.95;91.25
15884;BME280;8040;50.254;10.960;2023-08-31T06:02:18;97719.81;;;15.27;90.54
15884;BME280;8040;50.254;10.960;2023-08-31T06:04:43;97704.22;;;15.28;89.89
15884;BME280;8040;50.254;10.960;2023-08-31T06:10:51;97687.34;;;15.26;88.52
15884;BME280;8040;50.254;10.960;2023-08-31T06:13:17;97736.09;;;15.60;87.93
15884;BME280;8040;50.254;10.960;2023-08-31T06:15:42;97719.47;;;15.53;87.24
15884;BME280;8040;50.254;10.960;2023-08-31T06:18:09;97710.03;;;15.50;86.88
15884;BME280;8040;50.254;10.960;2023-08-31T06:20:35;97728.34;;;15.62;86.19
15884;BME280;8040;50.254;10.960;2023-08-31T06:23:01;97697.19;;;15.39;85.85
15884;BME280;8040;50.254;10.960;2023-08-31T06:25:27;97726.06;;;15.64;85.94
15884;BME280;8040;50.254;10.960;2023-08-31T06:27:53;97743.81;;;15.82;85.61
15884;BME280;8040;50.254;10.960;2023-08-31T06:30:18;97745.53;;;15.74;84.85
15884;BME280;8040;50.254;10.960;2023-08-31T06:32:46;97754.50;;;15.87;84.87
15884;BME280;8040;50.254;10.960;2023-08-31T06:35:13;97719.44;;;15.77;85.18
15884;BME280;8040;50.254;10.960;2023-08-31T06:37:39;97701.00;;;15.62;84.46
15884;BME280;8040;50.254;10.960;2023-08-31T06:40:06;97739.22;;;15.86;83.17
15884;BME280;8040;50.254;10.960;2023-08-31T06:42:34;97753.59;;;15.95;83.05
15884;BME280;8040;50.254;10.960;2023-08-31T06:44:59;97740.81;;;15.87;82.54
15884;BME280;8040;50.254;10.960;2023-08-31T06:47:24;97728.88;;;15.79;81.56
15884;BME280;8040;50.254;10.960;2023-08-31T06:49:50;97756.09;;;16.00;81.23
15884;BME280;8040;50.254;10.960;2023-08-31T06:52:16;97731.16;;;15.77;81.40
15884;BME280;8040;50.254;10.960;2023-08-31T06:54:42;97716.38;;;15.78;81.44
15884;BME280;8040;50.254;10.960;2023-08-31T06:57:07;97749.66;;;16.08;81.00
15884;BME280;8040;50.254;10.960;2023-08-31T06:59:33;97769.94;;;16.18;80.88
15884;BME280;8040;50.254;10.960;2023-08-31T07:01:58;97734.09;;;15.96;79.97
15884;BME280;8040;50.254;10.960;2023-08-31T07:04:23;97743.88;;;15.97;79.40
15884;BME280;8040;50.254;10.960;2023-08-31T07:06:49;97730.06;;;16.06;79.91
15884;BME280;8040;50.254;10.960;2023-08-31T07:09:14;97753.63;;;16.22;79.57
15884;BME280;8040;50.254;10.960;2023-08-31T07:11:40;97757.78;;;16.31;79.46
15884;BME280;8040;50.254;10.960;2023-08-31T07:14:05;97763.28;;;16.31;78.74
15884;BME280;8040;50.254;10.960;2023-08-31T07:19:15;97719.50;;;15.92;78.69
15884;BME280;8040;50.254;10.960;2023-08-31T07:21:41;97779.69;;;16.31;79.29
15884;BME280;8040;50.254;10.960;2023-08-31T07:24:09;97770.22;;;16.29;80.56
15884;BME280;8040;50.254;10.960;2023-08-31T07:26:34;97776.25;;;16.34;80.06
15884;BME280;8040;50.254;10.960;2023-08-31T07:29:01;97747.31;;;16.21;79.26
15884;BME280;8040;50.254;10.960;2023-08-31T07:31:30;97771.47;;;16.43;79.41
15884;BME280;8040;50.254;10.960;2023-08-31T07:33:57;97780.31;;;16.52;78.12
15884;BME280;8040;50.254;10.960;2023-08-31T07:36:22;97767.78;;;16.51;77.50
15884;BME280;8040;50.254;10.960;2023-08-31T07:38:48;97787.63;;;16.76;77.39
15884;BME280;8040;50.254;10.960;2023-08-31T07:41:14;97792.16;;;16.84;76.60
15884;BME280;8040;50.254;10.960;2023-08-31T07:43:39;97744.28;;;16.50;76.05
15884;BME280;8040;50.254;10.960;2023-08-31T07:46:04;97759.84;;;16.62;76.62
15884;BME280;8040;50.254;10.960;2023-08-31T07:48:30;97765.63;;;16.72;75.58
15884;BME280;8040;50.254;10.960;2023-08-31T07:50:55;97785.84;;;16.83;75.04
15884;BME280;8040;50.254;10.960;2023-08-31T07:53:21;97755.00;;;16.71;75.09
15884;BME280;8040;50.254;10.960;2023-08-31T07:55:52;97764.53;;;16.61;74.02
15884;BME280;8040;50.254;10.960;2023-08-31T07:58:20;97754.75;;;16.60;73.91
15884;BME280;8040;50.254;10.960;2023-08-31T08:00:48;97738.22;;;16.57;73.75
15884;BME280;8040;50.254;10.960;2023-08-31T08:03:13;97791.56;;;16.90;72.93
15884;BME280;8040;50.254;10.960;2023-08-31T08:05:39;97810.22;;;17.16;72.59
15884;BME280;8040;50.254;10.960;2023-08-31T08:08:05;97800.06;;;17.32;72.09
15884;BME280;8040;50.254;10.960;2023-08-31T08:10:30;97778.91;;;17.32;71.94
15884;BME280;8040;50.254;10.960;2023-08-31T08:12:56;97805.84;;;17.58;70.49
15884;BME280;8040;50.254;10.960;2023-08-31T08:15:21;97834.72;;;17.86;69.55
15884;BME280;8040;50.254;10.960;2023-08-31T08:17:47;97837.63;;;17.93;69.34
15884;BME280;8040;50.254;10.960;2023-08-31T08:20:13;97785.66;;;17.50;68.48
15884;BME280;8040;50.254;10.960;2023-08-31T08:22:39;97822.28;;;17.58;67.92
15884;BME280;8040;50.254;10.960;2023-08-31T08:25:04;97843.34;;;17.85;68.66
15884;BME280;8040;50.254;10.960;2023-08-31T08:27:31;97800.50;;;17.65;68.48
15884;BME280;8040;50.254;10.960;2023-08-31T08:29:58;97784.63;;;17.55;67.15
15884;BME280;8040;50.254;10.960;2023-08-31T08:32:24;97837.75;;;17.81;66.08
15884;BME280;8040;50.254;10.960;2023-08-31T08:34:50;97793.47;;;17.48;65.61
15884;BME280;8040;50.254;10.960;2023-08-31T08:37:15;97825.19;;;17.80;65.76
15884;BME280;8040;50.254;10.960;2023-08-31T08:39:49;97840.38;;;17.93;65.92
15884;BME280;8040;50.254;10.960;2023-08-31T08:42:17;97830.06;;;17.87;66.32
15884;BME280;8040;50.254;10.960;2023-08-31T08:44:43;97785.66;;;17.50;66.16
15884;BME280;8040;50.254;10.960;2023-08-31T08:47:11;97829.63;;;17.69;66.60
15884;BME280;8040;50.254;10.960;2023-08-31T08:49:37;97854.22;;;17.81;66.53
15884;BME280;8040;50.254;10.960;2023-08-31T08:52:03;97854.75;;;17.87;66.41
15884;BME280;8040;50.254;10.960;2023-08-31T08:54:29;97819.38;;;17.66;65.73
15884;BME280;8040;50.254;10.960;2023-08-31T08:56:54;97824.31;;;17.76;65.54
15884;BME280;8040;50.254;10.960;2023-08-31T08:59:20;97857.81;;;18.01;64.48
15884;BME280;8040;50.254;10.960;2023-08-31T09:01:48;97824.41;;;17.80;63.91
15884;BME280;8040;50.254;10.960;2023-08-31T09:04:13;97851.56;;;18.00;63.90
15884;BME280;8040;50.254;10.960;2023-08-31T09:06:39;97854.84;;;17.90;63.11
15884;BME280;8040;50.254;10.960;2023-08-31T09:09:08;97810.88;;;17.56;62.78
15884;BME280;8040;50.254;10.960;2023-08-31T09:11:35;97808.94;;;17.56;63.12
15884;BME280;8040;50.254;10.960;2023-08-31T09:14:13;97848.72;;;17.81;63.28
15884;BME280;8040;50.254;10.960;2023-08-31T09:16:39;97852.09;;;17.90;64.24
15884;BME280;8040;50.254;10.960;2023-08-31T09:19:17;97857.75;;;17.97;64.75
15884;BME280;8040;50.254;10.960;2023-08-31T09:21:43;97830.31;;;17.82;63.76
15884;BME280;8040;50.254;10.960;2023-08-31T09:24:14;97840.56;;;18.00;63.25
15884;BME280;8040;50.254;10.960;2023-08-31T09:26:40;97840.56;;;18.00;62.96
15884;BME280;8040;50.254;10.960;2023-08-31T09:29:08;97858.31;;;18.22;62.38
15884;BME280;8040;50.254;10.960;2023-08-31T09:31:34;97870.06;;;18.38;61.19
15884;BME280;8040;50.254;10.960;2023-08-31T09:33:59;97793.22;;;18.22;61.66
15884;BME280;8040;50.254;10.960;2023-08-31T09:36:26;97857.75;;;18.66;57.99
15884;BME280;8040;50.254;10.960;2023-08-31T09:38:51;97825.50;;;18.44;57.37
15884;BME280;8040;50.254;10.960;2023-08-31T09:41:17;97851.53;;;18.69;57.27
15884;BME280;8040;50.254;10.960;2023-08-31T09:43:44;97821.94;;;18.63;56.88
15884;BME280;8040;50.254;10.960;2023-08-31T09:46:10;97853.91;;;18.90;56.70
15884;BME280;8040;50.254;10.960;2023-08-31T09:48:36;97846.38;;;19.06;55.56
15884;BME280;8040;50.254;10.960;2023-08-31T09:51:07;97810.09;;;19.19;56.15
15884;BME280;8040;50.254;10.960;2023-08-31T09:53:35;97854.41;;;19.56;54.32
15884;BME280;8040;50.254;10.960;2023-08-31T09:56:01;97814.00;;;19.37;54.36
15884;BME280;8040;50.254;10.960;2023-08-31T09:58:28;97819.50;;;19.37;55.04
15884;BME280;8040;50.254;10.960;2023-08-31T10:00:56;97851.50;;;19.49;53.88
15884;BME280;8040;50.254;10.960;2023-08-31T10:03:23;97853.06;;;19.46;52.94
15884;BME280;8040;50.254;10.960;2023-08-31T10:05:49;97835.56;;;19.35;53.43
15884;BME280;8040;50.254;10.960;2023-08-31T10:08:16;97864.59;;;19.55;53.03
15884;BME280;8040;50.254;10.960;2023-08-31T10:10:43;97849.44;;;19.65;54.59
15884;BME280;8040;50.254;10.960;2023-08-31T10:13:09;97823.88;;;19.42;51.89
15884;BME280;8040;50.254;10.960;2023-08-31T10:15:35;97838.25;;;19.54;51.07
15884;BME280;8040;50.254;10.960;2023-08-31T10:18:05;97871.44;;;19.65;50.86
15884;BME280;8040;50.254;10.960;2023-08-31T10:20:32;97825.09;;;19.22;51.52
15884;BME280;8040;50.254;10.960;2023-08-31T10:23:03;97848.03;;;19.10;52.50
15884;BME280;8040;50.254;10.960;2023-08-31T10:28:21;97826.78;;;18.88;53.52
15884;BME280;8040;50.254;10.960;2023-08-31T10:31:15;97863.38;;;19.11;53.32
15884;BME280;8040;50.254;10.960;2023-08-31T10:33:45;97851.25;;;18.93;51.44
15884;BME280;8040;50.254;10.960;2023-08-31T10:38:36;97857.88;;;19.11;52.77
15884;BME280;8040;50.254;10.960;2023-08-31T10:46:42;97837.13;;;19.81;50.43
15884;BME280;8040;50.254;10.960;2023-08-31T10:51:38;97865.63;;;19.92;49.71
15884;BME280;8040;50.254;10.960;2023-08-31T10:54:33;97808.53;;;19.63;49.77
15884;BME280;8040;50.254;10.960;2023-08-31T10:57:04;97869.44;;;19.84;49.79
15884;BME280;8040;50.254;10.960;2023-08-31T10:59:54;97796.31;;;19.38;49.30
15884;BME280;8040;50.254;10.960;2023-08-31T11:02:45;97874.81;;;19.77;50.58
15884;BME280;8040;50.254;10.960;2023-08-31T11:07:43;97824.25;;;19.63;50.47
15884;BME280;8040;50.254;10.960;2023-08-31T11:12:40;97839.38;;;19.98;52.22
15884;BME280;8040;50.254;10.960;2023-08-31T11:15:06;97852.22;;;19.91;51.55
15884;BME280;8040;50.254;10.960;2023-08-31T11:17:32;97799.13;;;19.42;51.21
15884;BME280;8040;50.254;10.960;2023-08-31T11:19:58;97849.78;;;19.86;53.47
15884;BME280;8040;50.254;10.960;2023-08-31T11:22:24;97784.47;;;19.34;51.47
15884;BME280;8040;50.254;10.960;2023-08-31T11:24:50;97834.88;;;19.64;51.13
15884;BME280;8040;50.254;10.960;2023-08-31T11:27:20;97847.66;;;19.76;51.63
15884;BME280;8040;50.254;10.960;2023-08-31T11:29:47;97845.16;;;19.67;51.41
15884;BME280;8040;50.254;10.960;2023-08-31T11:32:13;97851.19;;;19.76;53.32
15884;BME280;8040;50.254;10.960;2023-08-31T11:34:43;97831.66;;;19.36;51.45
15884;BME280;8040;50.254;10.960;2023-08-31T11:37:13;97868.41;;;19.47;51.67
15884;BME280;8040;50.254;10.960;2023-08-31T11:39:49;97877.94;;;19.53;52.14
15884;BME280;8040;50.254;10.960;2023-08-31T11:42:16;97840.44;;;19.45;53.27
15884;BME280;8040;50.254;10.960;2023-08-31T11:44:42;97848.88;;;19.78;53.22
15884;BME280;8040;50.254;10.960;2023-08-31T11:47:07;97832.75;;;20.03;54.89
15884;BME280;8040;50.254;10.960;2023-08-31T11:49:33;97841.09;;;20.32;54.42
15884;BME280;8040;50.254;10.960;2023-08-31T11:51:59;97849.91;;;20.45;52.60
15884;BME280;8040;50.254;10.960;2023-08-31T11:54:25;97866.94;;;20.50;50.82
15884;BME280;8040;50.254;10.960;2023-08-31T11:56:51;97865.13;;;20.35;51.29
15884;BME280;8040;50.254;10.960;2023-08-31T11:59:20;97859.63;;;20.35;50.00
15884;BME280;8040;50.254;10.960;2023-08-31T12:01:46;97866.63;;;20.29;49.17
15884;BME280;8040;50.254;10.960;2023-08-31T12:04:14;97869.38;;;20.29;49.82
15884;BME280;8040;50.254;10.960;2023-08-31T12:06:40;97857.84;;;20.20;51.60
15884;BME280;8040;50.254;10.960;2023-08-31T12:09:09;97830.88;;;20.07;51.47
15884;BME280;8040;50.254;10.960;2023-08-31T12:11:35;97837.81;;;20.23;51.22
15884;BME280;8040;50.254;10.960;2023-08-31T12:14:27;97872.75;;;20.45;51.09
15884;BME280;8040;50.254;10.960;2023-08-31T12:17:22;97870.41;;;20.47;50.71
15884;BME280;8040;50.254;10.960;2023-08-31T12:19:48;97872.75;;;20.45;50.95
15884;BME280;8040;50.254;10.960;2023-08-31T12:22:13;97860.38;;;20.32;50.97
15884;BME280;8040;50.254;10.960;2023-08-31T12:24:40;97865.28;;;20.20;51.12
15884;BME280;8040;50.254;10.960;2023-08-31T12:27:07;97837.84;;;20.01;51.02
15884;BME280;8040;50.254;10.960;2023-08-31T12:29:32;97848.66;;;20.13;51.39
15884;BME280;8040;50.254;10.960;2023-08-31T12:32:01;97769.16;;;19.59;51.17
15884;BME280;8040;50.254;10.960;2023-08-31T12:34:30;97769.16;;;19.59;51.36
15884;BME280;8040;50.254;10.960;2023-08-31T12:36:58;97821.69;;;19.99;51.10
15884;BME280;8040;50.254;10.960;2023-08-31T12:39:27;97842.44;;;19.93;49.89
15884;BME280;8040;50.254;10.960;2023-08-31T12:41:52;97880.56;;;19.91;50.58
15884;BME280;8040;50.254;10.960;2023-08-31T12:44:17;97842.19;;;19.53;50.54
15884;BME280;8040;50.254;10.960;2023-08-31T12:46:43;97856.88;;;19.64;51.12
15884;BME280;8040;50.254;10.960;2023-08-31T12:49:12;97833.34;;;19.44;51.01
15884;BME280;8040;50.254;10.960;2023-08-31T12:51:37;97782.47;;;19.12;49.84
15884;BME280;8040;50.254;10.960;2023-08-31T12:54:03;97769.69;;;19.42;51.69
15884;BME280;8040;50.254;10.960;2023-08-31T12:56:34;97853.16;;;20.24;51.41
15884;BME280;8040;50.254;10.960;2023-08-31T12:58:59;97859.72;;;20.42;50.33
15884;BME280;8040;50.254;10.960;2023-08-31T13:01:25;97826.84;;;20.27;49.62
15884;BME280;8040;50.254;10.960;2023-08-31T13:03:51;97834.09;;;20.38;49.95
15884;BME280;8040;50.254;10.960;2023-08-31T13:06:17;97876.53;;;20.89;52.18
15884;BME280;8040;50.254;10.960;2023-08-31T13:08:44;97845.53;;;20.70;47.37
15884;BME280;8040;50.254;10.960;2023-08-31T13:11:10;97840.84;;;20.74;49.24
15884;BME280;8040;50.254;10.960;2023-08-31T13:13:35;97835.59;;;20.62;47.11
15884;BME280;8040;50.254;10.960;2023-08-31T13:16:01;97902.59;;;20.95;49.58
15884;BME280;8040;50.254;10.960;2023-08-31T13:18:45;97876.41;;;20.82;48.42
15884;BME280;8040;50.254;10.960;2023-08-31T13:21:17;97907.91;;;20.81;45.68
15884;BME280;8040;50.254;10.960;2023-08-31T13:23:42;97845.38;;;20.30;45.24
15884;BME280;8040;50.254;10.960;2023-08-31T13:26:09;97879.91;;;20.50;47.87
15884;BME280;8040;50.254;10.960;2023-08-31T13:28:35;97903.25;;;20.59;49.53
15884;BME280;8040;50.254;10.960;2023-08-31T13:31:00;97906.34;;;20.54;48.26